Time;durP1;ratioP1;P1;durP2;ratioP2;P2;SDS_P1;SDS_P2;PMS_P1;PMS_P2;Temp;Humidity;BMP_temperature;BMP_pressure;BME280_temperature;BME280_humidity;BME280_pressure;Samples;Min_cycle;Max_cycle;Signal;HPM_P1;HPM_P2
2022/11/28 00:00:32;;;;;;;66.90;35.60;;;;;;;;;;4991480;28;20461;-67
2022/11/28 00:02:59;;;;;;;67.13;37.57;;;;;;;;;;4990679;28;20567;-67
2022/11/28 00:05:43;;;;;;;60.73;33.10;;;;;;;;;;4990293;28;20415;-67
2022/11/28 00:08:12;;;;;;;89.50;43.40;;;;;;;;;;4991387;28;20482;-67
2022/11/28 00:10:39;;;;;;;90.63;43.70;;;;;;;;;;4990057;28;20705;-67
2022/11/28 00:13:06;;;;;;;72.37;40.17;;;;;;;;;;5003388;28;20501;-67
2022/11/28 00:15:32;;;;;;;72.90;38.23;;;;;;;;;;5010654;28;20467;-67
2022/11/28 00:17:59;;;;;;;64.80;35.93;;;;;;;;;;5010739;28;20442;-67
2022/11/28 00:20:25;;;;;;;74.17;38.83;;;;;;;;;;5009414;28;20439;-67
2022/11/28 00:22:52;;;;;;;68.47;37.33;;;;;;;;;;5011003;28;20855;-67
2022/11/28 00:25:18;;;;;;;76.17;37.60;;;;;;;;;;5000122;28;20506;-67
2022/11/28 00:27:45;;;;;;;73.37;40.23;;;;;;;;;;4991156;28;21272;-67
2022/11/28 00:30:12;;;;;;;73.57;37.93;;;;;;;;;;4989954;28;20503;-67
2022/11/28 00:32:39;;;;;;;68.93;37.27;;;;;;;;;;4989546;28;20434;-67
2022/11/28 00:35:05;;;;;;;74.30;38.70;;;;;;;;;;4990651;28;20450;-67
2022/11/28 00:37:32;;;;;;;87.70;43.30;;;;;;;;;;4991118;28;20432;-67
2022/11/28 00:39:59;;;;;;;73.83;38.57;;;;;;;;;;4990598;28;20442;-67
2022/11/28 00:42:25;;;;;;;70.63;37.73;;;;;;;;;;4990599;28;20432;-67
2022/11/28 00:44:52;;;;;;;75.43;38.60;;;;;;;;;;4990807;28;20510;-67
2022/11/28 00:47:18;;;;;;;62.47;36.27;;;;;;;;;;4989805;28;20773;-67
2022/11/28 00:49:45;;;;;;;65.87;35.90;;;;;;;;;;4990899;28;21110;-67
2022/11/28 00:52:11;;;;;;;75.73;37.83;;;;;;;;;;4990540;28;20476;-67
2022/11/28 00:54:38;;;;;;;78.97;40.13;;;;;;;;;;4990080;28;20507;-67
2022/11/28 00:57:04;;;;;;;80.23;39.93;;;;;;;;;;4990382;28;20446;-67
2022/11/28 00:59:31;;;;;;;78.10;40.70;;;;;;;;;;4988902;28;20455;-67
2022/11/28 01:01:57;;;;;;;76.03;39.27;;;;;;;;;;4990249;28;20789;-67
2022/11/28 01:04:26;;;;;;;82.53;40.57;;;;;;;;;;4990344;28;20533;-67
2022/11/28 01:06:53;;;;;;;74.80;38.87;;;;;;;;;;4989495;28;21303;-67
2022/11/28 01:09:20;;;;;;;81.30;40.20;;;;;;;;;;4988664;28;20447;-67
2022/11/28 01:11:48;;;;;;;71.97;37.93;;;;;;;;;;4990725;28;20827;-67
2022/11/28 01:14:14;;;;;;;67.63;35.17;;;;;;;;;;5008236;28;20474;-67
2022/11/28 01:16:41;;;;;;;65.57;31.93;;;;;;;;;;5009415;28;20463;-67
2022/11/28 01:19:08;;;;;;;49.33;27.10;;;;;;;;;;5009399;28;20435;-67
2022/11/28 01:21:34;;;;;;;47.33;25.47;;;;;;;;;;5009335;28;20411;-67
2022/11/28 01:24:01;;;;;;;45.30;23.47;;;;;;;;;;5000608;28;20487;-67
2022/11/28 01:26:27;;;;;;;49.67;25.00;;;;;;;;;;4989425;28;20470;-67
2022/11/28 01:28:54;;;;;;;46.57;24.30;;;;;;;;;;4988618;28;20420;-66
2022/11/28 01:31:21;;;;;;;62.87;31.80;;;;;;;;;;4988629;28;20464;-67
2022/11/28 01:33:48;;;;;;;60.57;32.37;;;;;;;;;;4989481;28;20982;-67
2022/11/28 01:36:15;;;;;;;63.10;32.47;;;;;;;;;;4988014;28;20534;-67
2022/11/28 01:38:42;;;;;;;56.87;31.07;;;;;;;;;;4988337;28;20437;-67
2022/11/28 01:41:08;;;;;;;50.77;27.27;;;;;;;;;;4988370;28;20543;-66
2022/11/28 01:43:35;;;;;;;52.30;28.27;;;;;;;;;;4989798;28;20464;-67
2022/11/28 01:46:19;;;;;;;50.97;27.20;;;;;;;;;;4989443;28;21325;-68
2022/11/28 01:48:45;;;;;;;53.43;23.97;;;;;;;;;;4988328;28;20754;-67
2022/11/28 01:51:12;;;;;;;52.63;23.07;;;;;;;;;;4989161;28;20475;-67
2022/11/28 01:53:40;;;;;;;52.03;22.47;;;;;;;;;;4988462;28;20443;-67
2022/11/28 01:56:13;;;;;;;54.10;23.13;;;;;;;;;;4988320;28;20446;-67
2022/11/28 01:58:40;;;;;;;57.20;20.10;;;;;;;;;;4988394;28;20856;-67
2022/11/28 02:01:07;;;;;;;43.47;20.07;;;;;;;;;;4987687;28;20493;-67
2022/11/28 02:03:37;;;;;;;38.77;19.30;;;;;;;;;;4987957;28;20442;-67
2022/11/28 02:06:03;;;;;;;51.50;18.87;;;;;;;;;;4989074;28;20431;-67
2022/11/28 02:08:31;;;;;;;49.07;18.53;;;;;;;;;;4987996;28;20460;-67
2022/11/28 02:11:01;;;;;;;46.10;18.60;;;;;;;;;;4987610;28;20463;-67
2022/11/28 02:13:52;;;;;;;43.70;18.67;;;;;;;;;;5003390;28;20454;-67
2022/11/28 02:16:28;;;;;;;55.77;18.17;;;;;;;;;;4987424;28;20484;-67
2022/11/28 02:19:15;;;;;;;64.80;18.03;;;;;;;;;;4989055;28;20416;-67
2022/11/28 02:22:00;;;;;;;78.10;19.70;;;;;;;;;;4988878;28;20878;-67
2022/11/28 02:24:55;;;;;;;37.97;17.33;;;;;;;;;;4974077;28;20415;-67
2022/11/28 02:27:26;;;;;;;44.80;17.37;;;;;;;;;;4987801;28;20445;-67
2022/11/28 02:30:08;;;;;;;46.93;16.90;;;;;;;;;;4987280;28;20530;-69
2022/11/28 02:32:53;;;;;;;39.70;16.57;;;;;;;;;;4969372;28;20484;-67
2022/11/28 02:35:44;;;;;;;36.47;17.27;;;;;;;;;;4968039;28;20482;-67
2022/11/28 02:38:13;;;;;;;43.77;17.63;;;;;;;;;;4969397;28;20450;-67
2022/11/28 02:40:59;;;;;;;46.73;18.07;;;;;;;;;;4969037;28;20423;-67
2022/11/28 02:43:39;;;;;;;41.20;17.40;;;;;;;;;;4969504;28;20417;-67
2022/11/28 02:46:36;;;;;;;41.83;16.53;;;;;;;;;;4971952;28;20486;-67
2022/11/28 02:49:03;;;;;;;33.77;15.80;;;;;;;;;;4988413;28;20476;-67
2022/11/28 02:51:49;;;;;;;34.43;15.53;;;;;;;;;;4987331;28;20473;-67
2022/11/28 02:54:15;;;;;;;46.40;14.83;;;;;;;;;;4992329;28;20432;-67
2022/11/28 02:56:46;;;;;;;49.17;16.47;;;;;;;;;;4991134;28;20555;-67
2022/11/28 02:59:25;;;;;;;57.40;17.03;;;;;;;;;;4992577;28;20469;-67
2022/11/28 03:02:17;;;;;;;55.70;16.67;;;;;;;;;;4992307;28;20427;-67
2022/11/28 03:04:44;;;;;;;62.90;16.77;;;;;;;;;;4991052;28;20467;-67
2022/11/28 03:07:34;;;;;;;56.37;16.60;;;;;;;;;;4994033;28;20428;-67
2022/11/28 03:10:07;;;;;;;54.10;18.17;;;;;;;;;;4991857;28;20428;-67
2022/11/28 03:12:43;;;;;;;64.07;15.97;;;;;;;;;;5002576;28;20481;-67
2022/11/28 03:15:10;;;;;;;82.50;16.30;;;;;;;;;;5013248;28;20481;-67
2022/11/28 03:18:03;;;;;;;46.80;15.43;;;;;;;;;;5016504;28;20429;-67
2022/11/28 03:20:34;;;;;;;79.37;17.27;;;;;;;;;;5017886;28;20453;-67
2022/11/28 03:23:03;;;;;;;65.70;15.57;;;;;;;;;;5011468;28;20962;-68
2022/11/28 03:25:30;;;;;;;69.90;16.23;;;;;;;;;;5011515;28;20435;-67
2022/11/28 03:28:08;;;;;;;51.73;14.40;;;;;;;;;;4993983;28;20486;-66
2022/11/28 03:30:54;;;;;;;102.03;22.30;;;;;;;;;;4995389;28;20431;-67
2022/11/28 03:33:21;;;;;;;98.70;17.60;;;;;;;;;;4993860;28;20435;-67
2022/11/28 03:36:16;;;;;;;89.13;16.47;;;;;;;;;;4995912;28;20438;-67
2022/11/28 03:38:44;;;;;;;94.20;17.20;;;;;;;;;;4993714;28;20897;-67
2022/11/28 03:41:38;;;;;;;101.83;16.50;;;;;;;;;;4996518;28;20965;-67
2022/11/28 03:44:10;;;;;;;64.50;16.87;;;;;;;;;;4994119;28;21327;-67
2022/11/28 03:46:39;;;;;;;117.03;19.00;;;;;;;;;;4994168;28;20462;-67
2022/11/28 03:49:08;;;;;;;67.23;16.70;;;;;;;;;;5011106;28;20522;-67
2022/11/28 03:51:42;;;;;;;139.43;19.13;;;;;;;;;;4975896;28;21242;-65
2022/11/28 03:54:15;;;;;;;145.67;19.40;;;;;;;;;;4992098;28;20445;-66
2022/11/28 03:57:01;;;;;;;103.37;17.13;;;;;;;;;;5005490;28;20940;-67
2022/11/28 03:59:47;;;;;;;73.10;12.93;;;;;;;;;;5008129;28;20998;-66
2022/11/28 04:02:28;;;;;;;103.27;16.60;;;;;;;;;;4999149;28;20498;-65
2022/11/28 04:05:16;;;;;;;74.00;16.77;;;;;;;;;;5006751;28;20425;-64
2022/11/28 04:07:44;;;;;;;127.87;18.00;;;;;;;;;;5010191;28;20489;-66
2022/11/28 04:10:20;;;;;;;91.20;15.30;;;;;;;;;;5010271;28;21229;-66
2022/11/28 04:12:57;;;;;;;102.20;19.00;;;;;;;;;;5011240;28;20599;-66
2022/11/28 04:15:24;;;;;;;71.07;15.50;;;;;;;;;;4990915;28;20470;-67
2022/11/28 04:17:56;;;;;;;85.53;13.37;;;;;;;;;;5022222;28;20442;-64
2022/11/28 04:20:31;;;;;;;80.23;14.43;;;;;;;;;;5009378;28;20890;-66
2022/11/28 04:23:00;;;;;;;79.03;14.50;;;;;;;;;;4991647;28;20531;-65
2022/11/28 04:25:27;;;;;;;69.93;14.40;;;;;;;;;;4990640;28;20429;-67
2022/11/28 04:27:55;;;;;;;62.97;14.63;;;;;;;;;;5003123;28;20462;-66
2022/11/28 04:30:22;;;;;;;60.10;14.90;;;;;;;;;;5009383;28;20575;-67
2022/11/28 04:32:49;;;;;;;74.43;14.70;;;;;;;;;;5000816;28;20484;-67
2022/11/28 04:35:19;;;;;;;110.40;15.00;;;;;;;;;;5009854;28;20493;-67
2022/11/28 04:37:47;;;;;;;84.60;12.93;;;;;;;;;;4988842;28;20878;-68
2022/11/28 04:40:14;;;;;;;70.87;11.23;;;;;;;;;;4971259;28;20443;-66
2022/11/28 04:42:45;;;;;;;85.83;12.77;;;;;;;;;;4993460;28;20487;-65
2022/11/28 04:45:32;;;;;;;73.03;14.53;;;;;;;;;;4996705;28;20451;-66
2022/11/28 04:47:58;;;;;;;87.83;15.00;;;;;;;;;;4994845;28;20453;-65
2022/11/28 04:50:27;;;;;;;52.97;14.90;;;;;;;;;;4990301;28;20497;-66
2022/11/28 04:52:54;;;;;;;58.17;15.93;;;;;;;;;;4986716;28;20580;-67
2022/11/28 04:55:39;;;;;;;38.40;13.00;;;;;;;;;;4996042;28;20851;-66
2022/11/28 04:58:08;;;;;;;41.07;14.33;;;;;;;;;;5001367;28;20468;-66
2022/11/28 05:00:34;;;;;;;43.60;13.73;;;;;;;;;;4986088;28;20442;-66
2022/11/28 05:03:01;;;;;;;43.73;12.83;;;;;;;;;;4990955;28;20538;-66
2022/11/28 05:05:46;;;;;;;43.27;12.77;;;;;;;;;;4976504;28;20436;-67
2022/11/28 05:08:13;;;;;;;41.67;13.67;;;;;;;;;;4999181;28;20447;-66
2022/11/28 05:10:57;;;;;;;48.07;14.10;;;;;;;;;;4986715;28;20768;-67
2022/11/28 05:13:23;;;;;;;46.03;14.07;;;;;;;;;;5013370;28;20574;-66
2022/11/28 05:16:08;;;;;;;51.03;15.40;;;;;;;;;;4988906;28;21285;-66
2022/11/28 05:18:35;;;;;;;55.57;14.00;;;;;;;;;;4985832;28;20447;-66
2022/11/28 05:21:01;;;;;;;46.17;13.90;;;;;;;;;;4992339;28;20483;-66
2022/11/28 05:23:28;;;;;;;50.97;13.40;;;;;;;;;;4994932;28;20445;-68
2022/11/28 05:25:54;;;;;;;50.53;14.57;;;;;;;;;;5002532;28;20546;-68
2022/11/28 05:28:21;;;;;;;60.70;14.47;;;;;;;;;;5001687;28;20455;-68
2022/11/28 05:30:57;;;;;;;50.73;14.10;;;;;;;;;;4992702;28;20451;-68
2022/11/28 05:33:23;;;;;;;68.53;14.20;;;;;;;;;;4998684;28;20573;-69
2022/11/28 05:35:50;;;;;;;49.47;14.43;;;;;;;;;;4995891;28;20459;-68
2022/11/28 05:38:16;;;;;;;45.30;15.60;;;;;;;;;;4988150;28;20556;-67
2022/11/28 05:41:00;;;;;;;43.50;14.77;;;;;;;;;;5015596;28;20458;-67
2022/11/28 05:43:27;;;;;;;47.03;16.27;;;;;;;;;;5014020;28;20518;-70
2022/11/28 05:45:54;;;;;;;45.20;15.47;;;;;;;;;;5010245;28;20440;-67
2022/11/28 05:48:21;;;;;;;52.77;16.47;;;;;;;;;;4992541;28;20972;-67
2022/11/28 05:50:49;;;;;;;54.63;16.90;;;;;;;;;;5005633;28;20452;-67
2022/11/28 05:53:16;;;;;;;53.47;16.47;;;;;;;;;;5003538;28;20489;-67
2022/11/28 05:55:44;;;;;;;53.00;16.53;;;;;;;;;;5012637;28;20467;-68
2022/11/28 05:58:11;;;;;;;57.13;16.33;;;;;;;;;;5011676;28;20439;-66
2022/11/28 06:00:38;;;;;;;49.10;18.13;;;;;;;;;;4977833;28;20446;-68
2022/11/28 06:03:04;;;;;;;43.50;17.00;;;;;;;;;;5010555;28;20530;-69
2022/11/28 06:05:31;;;;;;;43.07;14.53;;;;;;;;;;4977557;28;20458;-69
2022/11/28 06:08:09;;;;;;;40.93;15.37;;;;;;;;;;4993491;28;20935;-69
2022/11/28 06:10:36;;;;;;;43.20;16.23;;;;;;;;;;4989649;28;20443;-69
2022/11/28 06:13:03;;;;;;;47.67;16.43;;;;;;;;;;5004851;28;21005;-66
2022/11/28 06:15:30;;;;;;;51.87;17.50;;;;;;;;;;5025112;28;20536;-67
2022/11/28 06:18:02;;;;;;;49.53;17.70;;;;;;;;;;5025137;28;20468;-65
2022/11/28 06:20:29;;;;;;;48.57;16.60;;;;;;;;;;5003621;28;20506;-67
2022/11/28 06:22:56;;;;;;;55.57;17.60;;;;;;;;;;4981087;28;20803;-69
2022/11/28 06:25:22;;;;;;;53.77;19.17;;;;;;;;;;4995372;28;20546;-69
2022/11/28 06:27:49;;;;;;;62.10;19.60;;;;;;;;;;5007433;28;20523;-70
2022/11/28 06:30:16;;;;;;;55.63;18.77;;;;;;;;;;5008534;28;20466;-68
2022/11/28 06:32:43;;;;;;;49.70;16.23;;;;;;;;;;5008093;28;20537;-69
2022/11/28 06:35:27;;;;;;;61.47;16.00;;;;;;;;;;5008218;28;20415;-69
2022/11/28 06:37:53;;;;;;;70.83;17.67;;;;;;;;;;5008718;28;20426;-69
2022/11/28 06:40:20;;;;;;;46.07;15.27;;;;;;;;;;5007930;28;20461;-69
2022/11/28 06:42:49;;;;;;;45.70;15.60;;;;;;;;;;4990216;28;20447;-69
2022/11/28 06:45:15;;;;;;;51.43;16.00;;;;;;;;;;5008455;28;20415;-70
2022/11/28 06:47:42;;;;;;;46.40;15.00;;;;;;;;;;5008530;28;20427;-68
2022/11/28 06:50:09;;;;;;;60.00;15.73;;;;;;;;;;5001893;28;20440;-67
2022/11/28 06:52:36;;;;;;;50.57;15.87;;;;;;;;;;5021499;28;20471;-69
2022/11/28 06:55:02;;;;;;;48.77;16.13;;;;;;;;;;5022677;28;21070;-67
2022/11/28 06:57:31;;;;;;;62.80;15.27;;;;;;;;;;5013960;28;20428;-67
2022/11/28 06:59:58;;;;;;;72.27;15.63;;;;;;;;;;5005108;28;20469;-68
2022/11/28 07:02:42;;;;;;;66.60;14.90;;;;;;;;;;5007608;28;20419;-67
2022/11/28 07:05:08;;;;;;;56.30;14.43;;;;;;;;;;4996778;28;20531;-68
2022/11/28 07:07:35;;;;;;;52.40;14.67;;;;;;;;;;5010757;28;20463;-67
2022/11/28 07:10:19;;;;;;;62.70;14.83;;;;;;;;;;5011883;28;20434;-68
2022/11/28 07:12:46;;;;;;;62.47;13.53;;;;;;;;;;5012974;28;21156;-69
2022/11/28 07:15:12;;;;;;;66.67;14.33;;;;;;;;;;5011713;28;21008;-68
2022/11/28 07:17:39;;;;;;;70.87;13.57;;;;;;;;;;5002347;28;20439;-66
2022/11/28 07:20:06;;;;;;;63.97;13.83;;;;;;;;;;5010460;28;20482;-67
2022/11/28 07:22:35;;;;;;;68.20;14.03;;;;;;;;;;5017641;28;21021;-68
2022/11/28 07:25:02;;;;;;;90.03;13.87;;;;;;;;;;5018866;28;21162;-68
2022/11/28 07:27:29;;;;;;;55.13;13.43;;;;;;;;;;5025077;28;20473;-68
2022/11/28 07:29:55;;;;;;;56.00;12.30;;;;;;;;;;5019722;28;20437;-68
2022/11/28 07:32:22;;;;;;;60.33;13.90;;;;;;;;;;5026724;28;20488;-69
2022/11/28 07:34:48;;;;;;;71.30;13.80;;;;;;;;;;5009775;28;20988;-69
2022/11/28 07:37:15;;;;;;;79.60;14.63;;;;;;;;;;5010208;28;20477;-69
2022/11/28 07:39:43;;;;;;;67.80;15.10;;;;;;;;;;5030505;28;20516;-69
2022/11/28 07:42:10;;;;;;;91.63;14.27;;;;;;;;;;5031327;28;20434;-69
2022/11/28 07:44:37;;;;;;;81.63;15.30;;;;;;;;;;5013675;28;20469;-69
2022/11/28 07:47:03;;;;;;;106.90;14.43;;;;;;;;;;5013343;28;20483;-69
2022/11/28 07:49:31;;;;;;;68.17;14.10;;;;;;;;;;5014969;28;20444;-69
2022/11/28 07:51:57;;;;;;;65.27;14.27;;;;;;;;;;4994006;28;20466;-69
2022/11/28 07:54:24;;;;;;;55.47;15.13;;;;;;;;;;5011132;28;20514;-69
2022/11/28 07:56:50;;;;;;;112.30;15.70;;;;;;;;;;5011379;28;20474;-69
2022/11/28 07:59:37;;;;;;;60.40;11.73;;;;;;;;;;4996343;28;20485;-69
2022/11/28 08:02:03;;;;;;;89.87;17.30;;;;;;;;;;4993387;28;20468;-69
2022/11/28 08:04:30;;;;;;;114.60;17.10;;;;;;;;;;5011134;28;20488;-69
2022/11/28 08:06:57;;;;;;;87.60;17.07;;;;;;;;;;5010532;28;20452;-69
2022/11/28 08:09:24;;;;;;;101.93;18.90;;;;;;;;;;5011005;28;20528;-69
2022/11/28 08:11:51;;;;;;;84.57;16.47;;;;;;;;;;4990132;28;20448;-70
2022/11/28 08:14:18;;;;;;;55.80;14.87;;;;;;;;;;5011052;28;20431;-69
2022/11/28 08:16:45;;;;;;;67.23;15.23;;;;;;;;;;5010819;28;21251;-69
2022/11/28 08:19:12;;;;;;;71.17;15.90;;;;;;;;;;4993626;28;20954;-69
2022/11/28 08:21:39;;;;;;;131.73;17.47;;;;;;;;;;4992882;28;20443;-69
2022/11/28 08:24:06;;;;;;;67.37;16.57;;;;;;;;;;4976718;28;20499;-69
2022/11/28 08:26:33;;;;;;;46.20;15.57;;;;;;;;;;5010366;28;20427;-69
2022/11/28 08:29:00;;;;;;;67.20;15.87;;;;;;;;;;5010857;28;20435;-69
2022/11/28 08:31:44;;;;;;;52.43;13.80;;;;;;;;;;5010836;28;20418;-69
2022/11/28 08:34:11;;;;;;;87.97;13.73;;;;;;;;;;5010601;28;20570;-69
2022/11/28 08:36:55;;;;;;;58.43;14.80;;;;;;;;;;5010241;28;20451;-69
2022/11/28 08:39:22;;;;;;;64.63;12.80;;;;;;;;;;5009753;28;20509;-69
2022/11/28 08:41:50;;;;;;;82.97;15.67;;;;;;;;;;5010353;28;20435;-69
2022/11/28 08:44:17;;;;;;;86.50;14.43;;;;;;;;;;5010468;28;20431;-69
2022/11/28 08:46:43;;;;;;;87.17;17.80;;;;;;;;;;5010475;28;20485;-69
2022/11/28 08:49:10;;;;;;;74.53;15.63;;;;;;;;;;5010005;28;20955;-69
2022/11/28 08:51:37;;;;;;;92.33;16.40;;;;;;;;;;5009407;28;20437;-69
2022/11/28 08:54:03;;;;;;;81.93;14.93;;;;;;;;;;5009398;28;20471;-69
2022/11/28 08:56:30;;;;;;;100.87;16.53;;;;;;;;;;5010081;28;20439;-69
2022/11/28 08:58:56;;;;;;;84.27;13.80;;;;;;;;;;5010275;28;20464;-69
2022/11/28 09:01:24;;;;;;;67.63;13.97;;;;;;;;;;5010285;28;20430;-69
2022/11/28 09:03:51;;;;;;;45.43;13.37;;;;;;;;;;5010015;28;20436;-69
2022/11/28 09:06:17;;;;;;;60.93;14.10;;;;;;;;;;4992218;28;20445;-69
2022/11/28 09:08:44;;;;;;;63.10;13.33;;;;;;;;;;5009940;28;20482;-69
2022/11/28 09:11:30;;;;;;;70.50;14.03;;;;;;;;;;5009377;28;20838;-69
2022/11/28 09:13:56;;;;;;;56.07;12.93;;;;;;;;;;5010892;28;20479;-69
2022/11/28 09:16:41;;;;;;;53.63;11.53;;;;;;;;;;5008737;28;20465;-69
2022/11/28 09:19:09;;;;;;;42.43;12.97;;;;;;;;;;5009861;28;20419;-69
2022/11/28 09:21:36;;;;;;;78.40;15.53;;;;;;;;;;5009483;28;20463;-69
2022/11/28 09:24:03;;;;;;;65.83;14.00;;;;;;;;;;5009834;28;20839;-69
2022/11/28 09:26:29;;;;;;;60.13;14.30;;;;;;;;;;5003989;28;20475;-69
2022/11/28 09:28:56;;;;;;;48.80;12.47;;;;;;;;;;4972926;28;20512;-69
2022/11/28 09:31:22;;;;;;;51.77;13.23;;;;;;;;;;4990388;28;20435;-69
2022/11/28 09:33:49;;;;;;;71.00;12.07;;;;;;;;;;4989707;28;20474;-69
2022/11/28 09:36:20;;;;;;;62.50;12.87;;;;;;;;;;4989849;28;20440;-69
2022/11/28 09:38:46;;;;;;;59.60;13.33;;;;;;;;;;4989727;28;20438;-69
2022/11/28 09:41:35;;;;;;;56.73;11.57;;;;;;;;;;4989567;28;20491;-69
2022/11/28 09:44:19;;;;;;;89.30;12.67;;;;;;;;;;4974713;28;20425;-69
2022/11/28 09:46:45;;;;;;;61.27;11.80;;;;;;;;;;4989943;28;20460;-69
2022/11/28 09:49:21;;;;;;;41.03;11.50;;;;;;;;;;4972875;28;20938;-69
2022/11/28 09:51:56;;;;;;;41.03;11.40;;;;;;;;;;4972122;28;20432;-69
2022/11/28 09:54:28;;;;;;;30.77;11.07;;;;;;;;;;4989184;28;20510;-69
2022/11/28 09:56:55;;;;;;;52.00;11.70;;;;;;;;;;4972119;28;20505;-69
2022/11/28 09:59:21;;;;;;;48.63;11.90;;;;;;;;;;4989729;28;20529;-69
2022/11/28 10:01:55;;;;;;;33.13;11.03;;;;;;;;;;4988276;28;20455;-69
2022/11/28 10:04:32;;;;;;;42.63;10.37;;;;;;;;;;4968749;28;20425;-69
2022/11/28 10:07:08;;;;;;;56.27;10.53;;;;;;;;;;4952787;28;20510;-69
2022/11/28 10:09:41;;;;;;;38.53;11.60;;;;;;;;;;4969679;28;20500;-69
2022/11/28 10:12:15;;;;;;;42.67;10.87;;;;;;;;;;4962110;28;20430;-69
2022/11/28 10:15:07;;;;;;;34.43;10.30;;;;;;;;;;5011158;28;20478;-70
2022/11/28 10:17:37;;;;;;;48.47;9.67;;;;;;;;;;4997014;28;20969;-70
2022/11/28 10:20:05;;;;;;;39.80;10.97;;;;;;;;;;4989221;28;20442;-69
2022/11/28 10:22:41;;;;;;;36.27;10.53;;;;;;;;;;4972201;28;20539;-69
2022/11/28 10:25:18;;;;;;;48.23;10.90;;;;;;;;;;4988830;28;20429;-69
2022/11/28 10:27:44;;;;;;;48.93;11.40;;;;;;;;;;4971529;28;20446;-69
2022/11/28 10:30:15;;;;;;;49.63;11.40;;;;;;;;;;4971657;28;20533;-69
2022/11/28 10:32:42;;;;;;;52.33;11.40;;;;;;;;;;4971661;28;20560;-69
2022/11/28 10:35:20;;;;;;;50.00;12.50;;;;;;;;;;4993454;28;20509;-69
2022/11/28 10:37:53;;;;;;;35.77;11.10;;;;;;;;;;4992220;28;20629;-69
2022/11/28 10:40:25;;;;;;;61.80;10.87;;;;;;;;;;5008523;28;20501;-69
2022/11/28 10:42:51;;;;;;;46.60;11.87;;;;;;;;;;4991242;28;20411;-69
2022/11/28 10:45:37;;;;;;;71.20;12.20;;;;;;;;;;4991183;28;20485;-69
2022/11/28 10:48:22;;;;;;;59.23;10.67;;;;;;;;;;5008152;28;20448;-69
2022/11/28 10:51:16;;;;;;;73.23;12.10;;;;;;;;;;5008455;28;20517;-68
2022/11/28 10:53:50;;;;;;;55.70;11.17;;;;;;;;;;5007688;28;20475;-69
2022/11/28 10:56:32;;;;;;;58.10;13.17;;;;;;;;;;4990776;28;20504;-69
2022/11/28 10:59:29;;;;;;;42.40;12.07;;;;;;;;;;4993814;28;20435;-69
2022/11/28 11:01:56;;;;;;;64.67;13.97;;;;;;;;;;4991330;28;20432;-69
2022/11/28 11:04:25;;;;;;;59.13;12.33;;;;;;;;;;4991176;28;20438;-70
2022/11/28 11:06:55;;;;;;;57.57;12.67;;;;;;;;;;4991269;28;20974;-69
2022/11/28 11:09:35;;;;;;;56.27;12.27;;;;;;;;;;5007276;28;20501;-69
2022/11/28 11:12:02;;;;;;;44.97;11.83;;;;;;;;;;4994111;28;20434;-69
2022/11/28 11:14:32;;;;;;;43.40;11.83;;;;;;;;;;5030629;28;20988;-69
2022/11/28 11:16:59;;;;;;;47.57;13.17;;;;;;;;;;5014464;28;20471;-69
2022/11/28 11:19:28;;;;;;;48.60;11.90;;;;;;;;;;5032031;28;20422;-69
2022/11/28 11:21:58;;;;;;;42.03;12.70;;;;;;;;;;5031574;28;20438;-69
2022/11/28 11:24:24;;;;;;;62.53;12.73;;;;;;;;;;5013793;28;20433;-69
2022/11/28 11:26:51;;;;;;;36.13;12.30;;;;;;;;;;5031848;28;20441;-69
2022/11/28 11:29:22;;;;;;;35.17;13.77;;;;;;;;;;5031565;28;21311;-69
2022/11/28 11:31:49;;;;;;;44.60;14.10;;;;;;;;;;5014202;28;20434;-69
2022/11/28 11:34:37;;;;;;;39.93;13.50;;;;;;;;;;5000629;28;20493;-69
2022/11/28 11:37:39;;;;;;;30.10;13.33;;;;;;;;;;4993919;28;20443;-69
2022/11/28 11:40:25;;;;;;;30.47;11.80;;;;;;;;;;4915505;29;20577;-69
2022/11/28 11:42:55;;;;;;;26.53;12.37;;;;;;;;;;4931885;29;20442;-69
2022/11/28 11:45:26;;;;;;;42.90;14.83;;;;;;;;;;4931704;29;20470;-69
2022/11/28 11:47:53;;;;;;;39.47;13.57;;;;;;;;;;4957850;28;20454;-69
2022/11/28 11:50:20;;;;;;;34.03;15.60;;;;;;;;;;5010960;28;20511;-69
2022/11/28 11:53:12;;;;;;;33.60;13.63;;;;;;;;;;4993927;28;20422;-69
2022/11/28 11:55:47;;;;;;;41.00;14.07;;;;;;;;;;4994607;28;20447;-69
2022/11/28 11:58:15;;;;;;;34.57;14.00;;;;;;;;;;4994073;28;20439;-69
2022/11/28 12:00:41;;;;;;;34.33;13.77;;;;;;;;;;4994012;28;20423;-69
2022/11/28 12:03:11;;;;;;;35.60;14.63;;;;;;;;;;4993674;28;20444;-69
2022/11/28 12:05:44;;;;;;;31.37;13.93;;;;;;;;;;5011014;28;20429;-69
2022/11/28 12:08:42;;;;;;;30.50;14.23;;;;;;;;;;4995733;28;20451;-69
2022/11/28 12:11:12;;;;;;;30.17;14.10;;;;;;;;;;4993685;28;20438;-69
2022/11/28 12:13:38;;;;;;;25.03;13.87;;;;;;;;;;5028456;28;20536;-69
2022/11/28 12:16:08;;;;;;;26.30;12.23;;;;;;;;;;5030756;28;20457;-69
2022/11/28 12:18:51;;;;;;;30.90;14.23;;;;;;;;;;5030557;28;20431;-69
2022/11/28 12:21:21;;;;;;;31.77;13.97;;;;;;;;;;5030778;28;20438;-69
2022/11/28 12:23:47;;;;;;;31.40;15.47;;;;;;;;;;5012006;28;20533;-69
2022/11/28 12:26:34;;;;;;;28.20;13.30;;;;;;;;;;5009462;28;20432;-69
2022/11/28 12:29:05;;;;;;;27.63;14.00;;;;;;;;;;5000196;28;20950;-69
2022/11/28 12:31:38;;;;;;;26.93;14.27;;;;;;;;;;5011222;28;20432;-69
2022/11/28 12:34:07;;;;;;;29.47;14.20;;;;;;;;;;5010453;28;20541;-68
2022/11/28 12:36:40;;;;;;;30.13;14.10;;;;;;;;;;4992835;28;20426;-69
2022/11/28 12:39:17;;;;;;;27.10;13.53;;;;;;;;;;5009974;28;20463;-69
2022/11/28 12:41:43;;;;;;;25.83;13.73;;;;;;;;;;4993313;28;20437;-69
2022/11/28 12:44:14;;;;;;;26.67;13.30;;;;;;;;;;5010322;28;20427;-70
2022/11/28 12:46:41;;;;;;;23.53;12.30;;;;;;;;;;4993471;28;20437;-68
2022/11/28 12:49:07;;;;;;;24.53;13.67;;;;;;;;;;5010358;28;20431;-69
2022/11/28 12:51:40;;;;;;;26.50;13.40;;;;;;;;;;5010201;28;20440;-69
2022/11/28 12:54:12;;;;;;;34.00;13.77;;;;;;;;;;5009140;28;20485;-69
2022/11/28 12:56:42;;;;;;;29.07;13.00;;;;;;;;;;5010163;28;20430;-69
2022/11/28 12:59:24;;;;;;;30.67;14.50;;;;;;;;;;5009975;28;20501;-69
2022/11/28 13:01:51;;;;;;;30.73;14.70;;;;;;;;;;5010717;28;20459;-69
2022/11/28 13:04:40;;;;;;;31.03;15.57;;;;;;;;;;5009546;28;20437;-69
2022/11/28 13:07:20;;;;;;;37.47;14.70;;;;;;;;;;5010157;28;20534;-69
2022/11/28 13:10:05;;;;;;;28.83;14.00;;;;;;;;;;4975920;28;20443;-69
2022/11/28 13:12:49;;;;;;;28.73;13.70;;;;;;;;;;5010001;28;20438;-69
2022/11/28 13:15:22;;;;;;;34.07;14.40;;;;;;;;;;5028999;28;21006;-69
2022/11/28 13:17:54;;;;;;;31.07;13.87;;;;;;;;;;5029261;28;20951;-69
2022/11/28 13:20:26;;;;;;;33.57;14.30;;;;;;;;;;5011899;28;21114;-69
2022/11/28 13:23:15;;;;;;;30.77;13.93;;;;;;;;;;5029706;28;20589;-69
2022/11/28 13:25:42;;;;;;;27.50;12.47;;;;;;;;;;5022975;28;20502;-68
2022/11/28 13:28:12;;;;;;;33.23;13.93;;;;;;;;;;5009484;28;20532;-68
2022/11/28 13:30:43;;;;;;;39.60;12.87;;;;;;;;;;4992222;28;20439;-69
2022/11/28 13:33:29;;;;;;;35.00;13.23;;;;;;;;;;4980796;28;20459;-68
2022/11/28 13:35:56;;;;;;;26.93;13.70;;;;;;;;;;4991834;28;21012;-69
2022/11/28 13:38:42;;;;;;;30.07;14.10;;;;;;;;;;4991881;28;20439;-68
2022/11/28 13:41:33;;;;;;;36.87;13.67;;;;;;;;;;5008554;28;20534;-69
2022/11/28 13:44:23;;;;;;;31.03;13.83;;;;;;;;;;4988167;28;20471;-69
2022/11/28 13:46:54;;;;;;;32.43;13.40;;;;;;;;;;4992878;28;20794;-69
2022/11/28 13:49:25;;;;;;;29.70;14.00;;;;;;;;;;4975604;28;20958;-68
2022/11/28 13:52:30;;;;;;;27.17;13.23;;;;;;;;;;5009206;28;20950;-68
2022/11/28 13:55:34;;;;;;;30.00;12.93;;;;;;;;;;4967391;28;20511;-69
2022/11/28 13:58:14;;;;;;;25.70;11.30;;;;;;;;;;4991593;28;20467;-69
2022/11/28 14:00:42;;;;;;;33.33;11.90;;;;;;;;;;4991210;28;20971;-69
2022/11/28 14:03:18;;;;;;;61.03;13.00;;;;;;;;;;5009043;28;20435;-69
2022/11/28 14:05:45;;;;;;;28.73;11.70;;;;;;;;;;4991887;28;20430;-69
2022/11/28 14:08:24;;;;;;;36.20;12.63;;;;;;;;;;5008841;28;20415;-69
2022/11/28 14:10:57;;;;;;;63.07;14.33;;;;;;;;;;4991516;28;21123;-77
2022/11/28 14:13:26;;;;;;;78.50;13.60;;;;;;;;;;5023758;28;20441;-69
2022/11/28 14:16:29;;;;;;;49.80;12.33;;;;;;;;;;4999777;28;20467;-69
2022/11/28 14:19:08;;;;;;;61.43;13.53;;;;;;;;;;4991093;28;20435;-69
2022/11/28 14:21:34;;;;;;;72.73;16.30;;;;;;;;;;4975390;28;20504;-69
2022/11/28 14:24:01;;;;;;;106.53;17.03;;;;;;;;;;5008256;28;20482;-70
2022/11/28 14:26:33;;;;;;;44.90;15.40;;;;;;;;;;4991040;28;20445;-69
2022/11/28 14:29:00;;;;;;;64.77;15.73;;;;;;;;;;4991285;28;20428;-70
2022/11/28 14:31:31;;;;;;;59.40;14.00;;;;;;;;;;4991202;28;20471;-70
2022/11/28 14:34:00;;;;;;;95.43;15.73;;;;;;;;;;4963560;28;20475;-70
2022/11/28 14:36:33;;;;;;;86.77;13.77;;;;;;;;;;4994110;28;20435;-69
2022/11/28 14:39:00;;;;;;;67.33;13.93;;;;;;;;;;4993599;28;20443;-69
2022/11/28 14:41:27;;;;;;;54.33;12.63;;;;;;;;;;5011198;28;20439;-69
2022/11/28 14:43:54;;;;;;;53.40;15.57;;;;;;;;;;4977386;28;20442;-69